VLG9UZ LEBL-LEAM
Flight info
| Callsign | VLG9UZ |
|---|---|
| Flight time | 1h 0m |
| Altitude | 31000 |
| Route | LOTOS DCT TORDU DCT DIKUT DCT SOPET DCT VLC DCT SERRA DCT ASTRO DCT POBOS DCT XEBAR DCT YES DCT MAMIS DCT BAZAS DCT ARPEX M192 AGIDO |
| Aircraft | A319/M-SDE3FGHIRWY/LB1 |
Departure
| Time | 2026-04-16 09:56 |
|---|---|
| Airport | Josep Tarradellas Barcelona-El Prat Airport (LEBL) |
Arrival
| Time | 2026-04-16 10:56 |
|---|---|
| Airport | Almería Airport (LEAM) |
| Time | Latitude | Longitude | Altitude | Speed | Heading |
|---|---|---|---|---|---|
| 2026-04-16 09:18 | 41.29149 | 2.07945 | 19 ft | 0 kts | 155° |
| 2026-04-16 09:43 | 41.29164 | 2.07936 | 19 ft | 3 kts | 155° |
| 2026-04-16 09:44 | 41.29185 | 2.07924 | 19 ft | 3 kts | 155° |
| 2026-04-16 09:44 | 41.29206 | 2.07911 | 19 ft | 3 kts | 144° |
| 2026-04-16 09:44 | 41.29218 | 2.07890 | 19 ft | 3 kts | 84° |
| 2026-04-16 09:44 | 41.29213 | 2.07867 | 19 ft | 3 kts | 65° |
| 2026-04-16 09:45 | 41.29208 | 2.07854 | 19 ft | 0 kts | 65° |
| 2026-04-16 09:48 | 41.29211 | 2.07863 | 19 ft | 3 kts | 66° |
| 2026-04-16 09:48 | 41.29225 | 2.07904 | 5 ft | 7 kts | 67° |
| 2026-04-16 09:49 | 41.29250 | 2.07979 | 19 ft | 10 kts | 64° |
| 2026-04-16 09:49 | 41.29279 | 2.08061 | 19 ft | 9 kts | 65° |
| 2026-04-16 09:49 | 41.29305 | 2.08140 | 19 ft | 9 kts | 66° |
| 2026-04-16 09:49 | 41.29329 | 2.08208 | 20 ft | 7 kts | 65° |
| 2026-04-16 09:50 | 41.29351 | 2.08273 | 19 ft | 8 kts | 65° |
| 2026-04-16 09:50 | 41.29371 | 2.08350 | 19 ft | 9 kts | 93° |
| 2026-04-16 09:50 | 41.29337 | 2.08397 | 20 ft | 6 kts | 157° |
| 2026-04-16 09:50 | 41.29294 | 2.08421 | 21 ft | 9 kts | 156° |
| 2026-04-16 09:51 | 41.29217 | 2.08467 | 23 ft | 16 kts | 154° |
| 2026-04-16 09:51 | 41.29098 | 2.08539 | 16 ft | 21 kts | 155° |
| 2026-04-16 09:51 | 41.28969 | 2.08618 | 20 ft | 19 kts | 155° |
| 2026-04-16 09:51 | 41.28890 | 2.08665 | 16 ft | 8 kts | 155° |
| 2026-04-16 09:52 | 41.28863 | 2.08725 | 17 ft | 8 kts | 81° |
| 2026-04-16 09:52 | 41.28891 | 2.08817 | 17 ft | 14 kts | 66° |
| 2026-04-16 09:52 | 41.28939 | 2.08954 | 17 ft | 18 kts | 64° |
| 2026-04-16 09:52 | 41.28992 | 2.09113 | 18 ft | 19 kts | 65° |
| 2026-04-16 09:53 | 41.29048 | 2.09278 | 17 ft | 20 kts | 66° |
| 2026-04-16 09:53 | 41.29108 | 2.09450 | 18 ft | 21 kts | 65° |
| 2026-04-16 09:53 | 41.29170 | 2.09629 | 17 ft | 22 kts | 65° |
| 2026-04-16 09:53 | 41.29234 | 2.09817 | 17 ft | 22 kts | 66° |
| 2026-04-16 09:54 | 41.29275 | 2.09929 | 18 ft | 11 kts | 53° |
| 2026-04-16 09:54 | 41.29315 | 2.10018 | 17 ft | 12 kts | 66° |
| 2026-04-16 09:54 | 41.29330 | 2.10091 | 16 ft | 7 kts | 94° |
| 2026-04-16 09:54 | 41.29302 | 2.10164 | 15 ft | 10 kts | 113° |
| 2026-04-16 09:55 | 41.29273 | 2.10262 | 14 ft | 12 kts | 111° |
| 2026-04-16 09:55 | 41.29226 | 2.10312 | 15 ft | 6 kts | 178° |
| 2026-04-16 09:55 | 41.29205 | 2.10281 | 16 ft | 4 kts | 257° |
| 2026-04-16 09:55 | 41.29189 | 2.10236 | 16 ft | 11 kts | 245° |
| 2026-04-16 09:56 | 41.29052 | 2.09832 | 19 ft | 88 kts | 245° |
| 2026-04-16 09:56 | 41.28697 | 2.08797 | 35 ft | 153 kts | 244° |
| 2026-04-16 09:56 | 41.28243 | 2.07497 | 698 ft | 154 kts | 243° |
| 2026-04-16 09:56 | 41.27495 | 2.06478 | 1403 ft | 164 kts | 208° |
| 2026-04-16 09:57 | 41.26295 | 2.06240 | 1898 ft | 186 kts | 183° |
| 2026-04-16 09:57 | 41.24926 | 2.06180 | 2390 ft | 207 kts | 185° |
| 2026-04-16 09:57 | 41.23457 | 2.06093 | 3245 ft | 213 kts | 186° |
| 2026-04-16 09:57 | 41.21978 | 2.05996 | 4247 ft | 214 kts | 186° |
| 2026-04-16 09:58 | 41.20481 | 2.05892 | 5172 ft | 218 kts | 186° |
| 2026-04-16 09:58 | 41.18933 | 2.05781 | 5875 ft | 226 kts | 185° |
| 2026-04-16 09:58 | 41.17335 | 2.05387 | 6396 ft | 246 kts | 205° |
| 2026-04-16 09:58 | 41.15941 | 2.03941 | 6912 ft | 266 kts | 233° |
| 2026-04-16 09:59 | 41.14811 | 2.01936 | 7749 ft | 275 kts | 234° |
| 2026-04-16 09:59 | 41.13643 | 1.99899 | 8702 ft | 280 kts | 234° |
| 2026-04-16 09:59 | 41.12441 | 1.97831 | 9653 ft | 286 kts | 234° |
| 2026-04-16 09:59 | 41.11208 | 1.95719 | 10458 ft | 297 kts | 234° |
| 2026-04-16 10:00 | 41.09895 | 1.93466 | 10861 ft | 319 kts | 234° |
| 2026-04-16 10:00 | 41.08512 | 1.91093 | 11551 ft | 329 kts | 234° |
| 2026-04-16 10:00 | 41.07100 | 1.88668 | 12373 ft | 335 kts | 234° |
| 2026-04-16 10:01 | 41.04209 | 1.83700 | 14037 ft | 345 kts | 235° |
| 2026-04-16 10:01 | 41.02731 | 1.81160 | 14761 ft | 350 kts | 235° |
| 2026-04-16 10:01 | 41.01235 | 1.78597 | 15492 ft | 354 kts | 235° |
| 2026-04-16 10:01 | 40.99719 | 1.76008 | 16243 ft | 358 kts | 235° |
| 2026-04-16 10:02 | 40.98187 | 1.73389 | 16997 ft | 361 kts | 235° |
| 2026-04-16 10:02 | 40.96642 | 1.70750 | 17752 ft | 364 kts | 235° |
| 2026-04-16 10:02 | 40.95084 | 1.68084 | 18496 ft | 368 kts | 235° |
| 2026-04-16 10:02 | 40.93510 | 1.65396 | 19121 ft | 372 kts | 235° |
| 2026-04-16 10:03 | 40.91913 | 1.62674 | 19734 ft | 376 kts | 235° |
| 2026-04-16 10:03 | 40.90300 | 1.59928 | 20345 ft | 381 kts | 235° |
| 2026-04-16 10:03 | 40.88666 | 1.57146 | 20955 ft | 385 kts | 235° |
| 2026-04-16 10:03 | 40.87036 | 1.54366 | 21541 ft | 390 kts | 235° |
| 2026-04-16 10:04 | 40.85368 | 1.51522 | 22143 ft | 394 kts | 235° |
| 2026-04-16 10:04 | 40.83676 | 1.48644 | 22735 ft | 399 kts | 235° |
| 2026-04-16 10:04 | 40.81963 | 1.45733 | 23327 ft | 403 kts | 235° |
| 2026-04-16 10:04 | 40.80231 | 1.42793 | 23891 ft | 408 kts | 235° |
| 2026-04-16 10:05 | 40.78481 | 1.39830 | 24383 ft | 412 kts | 235° |
| 2026-04-16 10:05 | 40.76715 | 1.36845 | 24875 ft | 415 kts | 235° |
| 2026-04-16 10:05 | 40.74931 | 1.33833 | 25368 ft | 418 kts | 235° |
| 2026-04-16 10:05 | 40.73127 | 1.30792 | 25852 ft | 421 kts | 235° |
| 2026-04-16 10:06 | 40.71315 | 1.27738 | 26327 ft | 424 kts | 235° |
| 2026-04-16 10:06 | 40.69490 | 1.24663 | 26794 ft | 427 kts | 235° |
| 2026-04-16 10:06 | 40.67656 | 1.21572 | 27259 ft | 430 kts | 235° |
| 2026-04-16 10:06 | 40.65803 | 1.18456 | 27707 ft | 433 kts | 235° |
| 2026-04-16 10:07 | 40.63940 | 1.15322 | 28167 ft | 436 kts | 235° |
| 2026-04-16 10:07 | 40.62063 | 1.12168 | 28626 ft | 439 kts | 235° |
| 2026-04-16 10:07 | 40.60171 | 1.08991 | 29066 ft | 442 kts | 235° |
| 2026-04-16 10:07 | 40.58265 | 1.05800 | 29506 ft | 445 kts | 235° |
| 2026-04-16 10:08 | 40.56345 | 1.02592 | 29939 ft | 448 kts | 235° |
| 2026-04-16 10:08 | 40.54397 | 0.99379 | 30360 ft | 451 kts | 233° |
| 2026-04-16 10:08 | 40.52344 | 0.96233 | 30719 ft | 455 kts | 231° |
| 2026-04-16 10:08 | 40.50201 | 0.93157 | 31077 ft | 458 kts | 230° |
| 2026-04-16 10:09 | 40.48006 | 0.90119 | 31213 ft | 457 kts | 229° |
| 2026-04-16 10:09 | 40.45838 | 0.87153 | 31240 ft | 441 kts | 229° |
| 2026-04-16 10:09 | 40.43787 | 0.84336 | 31237 ft | 425 kts | 230° |
| 2026-04-16 10:09 | 40.41776 | 0.81537 | 31237 ft | 419 kts | 230° |
| 2026-04-16 10:10 | 40.37822 | 0.75920 | 31238 ft | 415 kts | 231° |
| 2026-04-16 10:10 | 40.33930 | 0.70340 | 31242 ft | 414 kts | 231° |
| 2026-04-16 10:11 | 40.30048 | 0.64818 | 31241 ft | 414 kts | 231° |
| 2026-04-16 10:11 | 40.26128 | 0.59292 | 31236 ft | 414 kts | 230° |
| 2026-04-16 10:12 | 40.22209 | 0.53776 | 31237 ft | 414 kts | 230° |
| 2026-04-16 10:12 | 40.18292 | 0.48266 | 31236 ft | 413 kts | 231° |
| 2026-04-16 10:13 | 40.14379 | 0.42756 | 31236 ft | 413 kts | 231° |
| 2026-04-16 10:13 | 40.10469 | 0.37265 | 31239 ft | 412 kts | 230° |
| 2026-04-16 10:14 | 40.06554 | 0.31788 | 31239 ft | 412 kts | 230° |
| 2026-04-16 10:14 | 40.02640 | 0.26326 | 31239 ft | 412 kts | 230° |
| 2026-04-16 10:15 | 39.98727 | 0.20870 | 31236 ft | 411 kts | 230° |
| 2026-04-16 10:15 | 39.94819 | 0.15431 | 31233 ft | 411 kts | 230° |
| 2026-04-16 10:16 | 39.90917 | 0.09993 | 31232 ft | 411 kts | 230° |
| 2026-04-16 10:16 | 39.87013 | 0.04567 | 31230 ft | 410 kts | 230° |
| 2026-04-16 10:17 | 39.83135 | -0.00804 | 31228 ft | 410 kts | 230° |
| 2026-04-16 10:17 | 39.79238 | -0.06205 | 31225 ft | 409 kts | 230° |
| 2026-04-16 10:18 | 39.75327 | -0.11589 | 31227 ft | 409 kts | 230° |
| 2026-04-16 10:18 | 39.71424 | -0.16972 | 31230 ft | 409 kts | 230° |
| 2026-04-16 10:19 | 39.67536 | -0.22346 | 31228 ft | 409 kts | 230° |
| 2026-04-16 10:19 | 39.63629 | -0.27713 | 31235 ft | 408 kts | 230° |
| 2026-04-16 10:20 | 39.59722 | -0.33057 | 31233 ft | 408 kts | 230° |
| 2026-04-16 10:20 | 39.55816 | -0.38395 | 31235 ft | 408 kts | 230° |
| 2026-04-16 10:21 | 39.51916 | -0.43726 | 31233 ft | 407 kts | 230° |
| 2026-04-16 10:21 | 39.48088 | -0.49113 | 31233 ft | 405 kts | 236° |
| 2026-04-16 10:22 | 39.44698 | -0.54916 | 31236 ft | 404 kts | 237° |
| 2026-04-16 10:22 | 39.41310 | -0.60708 | 31234 ft | 403 kts | 236° |
| 2026-04-16 10:23 | 39.37938 | -0.66451 | 31224 ft | 403 kts | 236° |
| 2026-04-16 10:23 | 39.34542 | -0.72212 | 31227 ft | 402 kts | 236° |
| 2026-04-16 10:24 | 39.31710 | -0.77026 | 31222 ft | 402 kts | 236° |
| 2026-04-16 10:24 | 39.28327 | -0.82754 | 31221 ft | 401 kts | 236° |
| 2026-04-16 10:25 | 39.24940 | -0.88483 | 31223 ft | 401 kts | 236° |
| 2026-04-16 10:25 | 39.21559 | -0.94206 | 31222 ft | 401 kts | 236° |
| 2026-04-16 10:26 | 39.18197 | -0.99886 | 31221 ft | 401 kts | 236° |
| 2026-04-16 10:26 | 39.14808 | -1.05573 | 31231 ft | 400 kts | 236° |
| 2026-04-16 10:27 | 39.11419 | -1.11251 | 31231 ft | 399 kts | 236° |
| 2026-04-16 10:27 | 39.08039 | -1.16921 | 31226 ft | 399 kts | 236° |
| 2026-04-16 10:28 | 39.04659 | -1.22583 | 31224 ft | 399 kts | 236° |
| 2026-04-16 10:28 | 39.00691 | -1.27601 | 31228 ft | 406 kts | 218° |
| 2026-04-16 10:29 | 38.95834 | -1.31361 | 31225 ft | 408 kts | 214° |
| 2026-04-16 10:29 | 38.90964 | -1.35087 | 31223 ft | 407 kts | 214° |
| 2026-04-16 10:30 | 38.86098 | -1.38814 | 31221 ft | 407 kts | 214° |
| 2026-04-16 10:30 | 38.81229 | -1.42536 | 31221 ft | 407 kts | 214° |
| 2026-04-16 10:31 | 38.76368 | -1.46248 | 31220 ft | 407 kts | 214° |
| 2026-04-16 10:31 | 38.71500 | -1.49946 | 31217 ft | 407 kts | 214° |
| 2026-04-16 10:32 | 38.66641 | -1.53635 | 31217 ft | 406 kts | 214° |
| 2026-04-16 10:32 | 38.61773 | -1.57325 | 31219 ft | 406 kts | 214° |
| 2026-04-16 10:33 | 38.56910 | -1.61002 | 31215 ft | 406 kts | 214° |
| 2026-04-16 10:33 | 38.52047 | -1.64679 | 31218 ft | 406 kts | 214° |
| 2026-04-16 10:34 | 38.47190 | -1.68354 | 31217 ft | 406 kts | 214° |
| 2026-04-16 10:34 | 38.42329 | -1.72021 | 31216 ft | 406 kts | 214° |
| 2026-04-16 10:35 | 38.37472 | -1.75680 | 31219 ft | 406 kts | 214° |
| 2026-04-16 10:35 | 38.32640 | -1.79305 | 31207 ft | 406 kts | 214° |
| 2026-04-16 10:36 | 38.27777 | -1.82954 | 31210 ft | 405 kts | 214° |
| 2026-04-16 10:36 | 38.22925 | -1.86599 | 31214 ft | 405 kts | 214° |
| 2026-04-16 10:37 | 38.18067 | -1.90235 | 31219 ft | 405 kts | 214° |
| 2026-04-16 10:37 | 38.13199 | -1.93866 | 31218 ft | 405 kts | 214° |
| 2026-04-16 10:38 | 38.08331 | -1.97488 | 31222 ft | 405 kts | 214° |
| 2026-04-16 10:38 | 38.03471 | -2.01098 | 31220 ft | 405 kts | 214° |
| 2026-04-16 10:39 | 37.98608 | -2.04715 | 31223 ft | 405 kts | 214° |
| 2026-04-16 10:39 | 37.93749 | -2.08324 | 31224 ft | 404 kts | 214° |
| 2026-04-16 10:40 | 37.88895 | -2.11936 | 31227 ft | 404 kts | 214° |
| 2026-04-16 10:40 | 37.84037 | -2.15536 | 30778 ft | 407 kts | 214° |
| 2026-04-16 10:41 | 37.81625 | -2.17315 | 30258 ft | 407 kts | 214° |
| 2026-04-16 10:41 | 37.79150 | -2.19136 | 29739 ft | 404 kts | 214° |
| 2026-04-16 10:41 | 37.76767 | -2.20888 | 29295 ft | 400 kts | 214° |
| 2026-04-16 10:41 | 37.74368 | -2.22652 | 28841 ft | 397 kts | 214° |
| 2026-04-16 10:42 | 37.71991 | -2.24401 | 28402 ft | 395 kts | 214° |
| 2026-04-16 10:42 | 37.69628 | -2.26141 | 27972 ft | 392 kts | 214° |
| 2026-04-16 10:42 | 37.67223 | -2.27788 | 27241 ft | 399 kts | 205° |
| 2026-04-16 10:42 | 37.64473 | -2.28629 | 26163 ft | 416 kts | 185° |
| 2026-04-16 10:43 | 37.61592 | -2.28269 | 25257 ft | 418 kts | 166° |
| 2026-04-16 10:43 | 37.58823 | -2.27259 | 24563 ft | 412 kts | 164° |
| 2026-04-16 10:43 | 37.56083 | -2.26266 | 23847 ft | 407 kts | 165° |
| 2026-04-16 10:43 | 37.53369 | -2.25298 | 23026 ft | 403 kts | 165° |
| 2026-04-16 10:44 | 37.50686 | -2.24346 | 22232 ft | 398 kts | 165° |
| 2026-04-16 10:44 | 37.48029 | -2.23405 | 21147 ft | 400 kts | 165° |
| 2026-04-16 10:44 | 37.45315 | -2.22444 | 19802 ft | 411 kts | 164° |
| 2026-04-16 10:44 | 37.42530 | -2.21454 | 18549 ft | 419 kts | 164° |
| 2026-04-16 10:45 | 37.39720 | -2.20452 | 17436 ft | 418 kts | 164° |
| 2026-04-16 10:45 | 37.36941 | -2.19462 | 16462 ft | 413 kts | 164° |
| 2026-04-16 10:45 | 37.34190 | -2.18483 | 15527 ft | 408 kts | 163° |
| 2026-04-16 10:45 | 37.31484 | -2.17519 | 14734 ft | 399 kts | 163° |
| 2026-04-16 10:46 | 37.28850 | -2.16583 | 14134 ft | 387 kts | 163° |
| 2026-04-16 10:46 | 37.26318 | -2.15686 | 13715 ft | 369 kts | 163° |
| 2026-04-16 10:46 | 37.23898 | -2.14829 | 13293 ft | 354 kts | 163° |
| 2026-04-16 10:46 | 37.21564 | -2.14003 | 12830 ft | 344 kts | 163° |
| 2026-04-16 10:47 | 37.19301 | -2.13203 | 12401 ft | 333 kts | 163° |
| 2026-04-16 10:47 | 37.17092 | -2.12422 | 11984 ft | 327 kts | 163° |
| 2026-04-16 10:47 | 37.14921 | -2.11653 | 11577 ft | 322 kts | 163° |
| 2026-04-16 10:47 | 37.12787 | -2.10900 | 11170 ft | 315 kts | 163° |
| 2026-04-16 10:48 | 37.10687 | -2.10205 | 10771 ft | 309 kts | 169° |
| 2026-04-16 10:48 | 37.08567 | -2.10074 | 10381 ft | 302 kts | 186° |
| 2026-04-16 10:48 | 37.06548 | -2.10624 | 9975 ft | 293 kts | 202° |
| 2026-04-16 10:48 | 37.04765 | -2.11699 | 9555 ft | 285 kts | 210° |
| 2026-04-16 10:49 | 37.03025 | -2.12816 | 9125 ft | 278 kts | 202° |
| 2026-04-16 10:49 | 37.01147 | -2.13032 | 8671 ft | 272 kts | 166° |
| 2026-04-16 10:49 | 36.99553 | -2.11908 | 8240 ft | 262 kts | 131° |
| 2026-04-16 10:49 | 36.98432 | -2.10166 | 7835 ft | 254 kts | 124° |
| 2026-04-16 10:50 | 36.97376 | -2.08443 | 7475 ft | 246 kts | 128° |
| 2026-04-16 10:50 | 36.96212 | -2.06915 | 7112 ft | 241 kts | 136° |
| 2026-04-16 10:50 | 36.94902 | -2.05591 | 6549 ft | 243 kts | 146° |
| 2026-04-16 10:50 | 36.93313 | -2.05010 | 6026 ft | 241 kts | 186° |
| 2026-04-16 10:51 | 36.91819 | -2.05800 | 5554 ft | 235 kts | 226° |
| 2026-04-16 10:51 | 36.91003 | -2.07515 | 5114 ft | 229 kts | 252° |
| 2026-04-16 10:51 | 36.90595 | -2.09402 | 4760 ft | 222 kts | 258° |
| 2026-04-16 10:51 | 36.90282 | -2.11272 | 4393 ft | 218 kts | 259° |
| 2026-04-16 10:52 | 36.89962 | -2.13117 | 3995 ft | 217 kts | 258° |
| 2026-04-16 10:52 | 36.89661 | -2.14956 | 3576 ft | 216 kts | 259° |
| 2026-04-16 10:52 | 36.89311 | -2.16784 | 3098 ft | 218 kts | 255° |
| 2026-04-16 10:52 | 36.88893 | -2.18578 | 2795 ft | 211 kts | 253° |
| 2026-04-16 10:53 | 36.88476 | -2.20296 | 2563 ft | 201 kts | 253° |
| 2026-04-16 10:53 | 36.88078 | -2.21931 | 2272 ft | 193 kts | 252° |
| 2026-04-16 10:53 | 36.87697 | -2.23494 | 2028 ft | 183 kts | 252° |
| 2026-04-16 10:53 | 36.87339 | -2.24965 | 1775 ft | 170 kts | 251° |
| 2026-04-16 10:54 | 36.87008 | -2.26320 | 1564 ft | 157 kts | 251° |
| 2026-04-16 10:54 | 36.86699 | -2.27586 | 1364 ft | 149 kts | 250° |
| 2026-04-16 10:54 | 36.86405 | -2.28790 | 1162 ft | 142 kts | 250° |
| 2026-04-16 10:54 | 36.86126 | -2.29931 | 983 ft | 137 kts | 250° |
| 2026-04-16 10:55 | 36.85852 | -2.31050 | 812 ft | 133 kts | 251° |
| 2026-04-16 10:55 | 36.85584 | -2.32149 | 630 ft | 131 kts | 251° |
| 2026-04-16 10:55 | 36.85317 | -2.33242 | 454 ft | 131 kts | 251° |
| 2026-04-16 10:55 | 36.85050 | -2.34329 | 267 ft | 131 kts | 251° |
| 2026-04-16 10:56 | 36.84787 | -2.35408 | 101 ft | 129 kts | 251° |
| 2026-04-16 10:56 | 36.84549 | -2.36401 | 59 ft | 100 kts | 253° |
| 2026-04-16 10:56 | 36.84372 | -2.37100 | 59 ft | 72 kts | 252° |
| 2026-04-16 10:56 | 36.84261 | -2.37570 | 59 ft | 44 kts | 253° |
| 2026-04-16 10:57 | 36.84196 | -2.37873 | 63 ft | 26 kts | 266° |
| 2026-04-16 10:57 | 36.84206 | -2.38038 | 63 ft | 18 kts | 281° |
| 2026-04-16 10:57 | 36.84221 | -2.38143 | 64 ft | 6 kts | 281° |
| 2026-04-16 10:57 | 36.84237 | -2.38190 | 60 ft | 6 kts | 314° |
| 2026-04-16 10:58 | 36.84266 | -2.38197 | 65 ft | 4 kts | 20° |
| 2026-04-16 10:58 | 36.84289 | -2.38152 | 63 ft | 8 kts | 75° |
| 2026-04-16 10:58 | 36.84302 | -2.38097 | 63 ft | 4 kts | 72° |
| 2026-04-16 10:58 | 36.84304 | -2.38089 | 64 ft | 0 kts | 72° |
| 2026-04-16 10:59 | 36.84306 | -2.38081 | 66 ft | 4 kts | 72° |
| 2026-04-16 10:59 | 36.84319 | -2.38028 | 66 ft | 9 kts | 73° |
| 2026-04-16 10:59 | 36.84343 | -2.37929 | 63 ft | 14 kts | 73° |
| 2026-04-16 11:00 | 36.84375 | -2.37798 | 66 ft | 17 kts | 73° |
| 2026-04-16 11:00 | 36.84411 | -2.37652 | 58 ft | 16 kts | 73° |
| 2026-04-16 11:00 | 36.84439 | -2.37539 | 62 ft | 10 kts | 72° |
| 2026-04-16 11:00 | 36.84492 | -2.37501 | 66 ft | 10 kts | 354° |
| 2026-04-16 11:01 | 36.84536 | -2.37456 | 66 ft | 9 kts | 73° |
| 2026-04-16 11:01 | 36.84554 | -2.37378 | 61 ft | 10 kts | 73° |
| 2026-04-16 11:01 | 36.84581 | -2.37341 | 66 ft | 5 kts | 345° |
| 2026-04-16 11:01 | 36.84609 | -2.37351 | 69 ft | 4 kts | 343° |
| 2026-04-16 11:02 | 36.84634 | -2.37360 | 70 ft | 3 kts | 344° |
| 2026-04-16 11:02 | 36.84640 | -2.37350 | 70 ft | 2 kts | 88° |
| 2026-04-16 11:02 | 36.84633 | -2.37329 | 66 ft | 1 kts | 99° |
| 2026-04-16 11:02 | 36.84630 | -2.37326 | 67 ft | 0 kts | 122° |